Time;durP1;ratioP1;P1;durP2;ratioP2;P2;SDS_P1;SDS_P2;PMS_P1;PMS_P2;Temp;Humidity;BMP_temperature;BMP_pressure;BME280_temperature;BME280_humidity;BME280_pressure;Samples;Min_cycle;Max_cycle;Signal;HPM_P1;HPM_P2
2024/01/20 00:00:41;;;;;;;9.50;3.17;;;;;;;-0.15;85.82;101712.69;5031318;28;20183;-68
2024/01/20 00:03:07;;;;;;;15.33;3.57;;;;;;;-0.10;85.36;101709.72;5028960;28;20494;-68
2024/01/20 00:05:32;;;;;;;9.53;2.63;;;;;;;-0.08;85.30;101712.50;5028927;28;20132;-66
2024/01/20 00:07:57;;;;;;;9.77;3.00;;;;;;;-0.01;85.34;101709.75;5028304;28;20048;-68
2024/01/20 00:10:23;;;;;;;12.40;3.40;;;;;;;0.01;84.82;101703.00;5020549;28;20038;-68
2024/01/20 00:12:48;;;;;;;9.30;3.23;;;;;;;0.05;84.87;101710.31;5020473;28;20120;-67
2024/01/20 00:15:14;;;;;;;10.50;3.70;;;;;;;0.09;84.45;101712.47;5020214;28;20148;-69
2024/01/20 00:17:40;;;;;;;15.63;3.53;;;;;;;0.06;84.19;101712.16;5021674;28;20040;-68
2024/01/20 00:20:06;;;;;;;9.13;2.60;;;;;;;0.09;84.34;101722.88;5020203;28;20040;-65
2024/01/20 00:24:59;;;;;;;11.63;3.28;;;;;;;0.14;83.68;101716.44;5080930;27;20368;-64
2024/01/20 00:27:27;;;;;;;12.82;2.72;;;;;;;0.20;83.56;101710.91;5080742;28;20078;-64
2024/01/20 00:29:53;;;;;;;8.93;3.40;;;;;;;0.19;83.44;101724.66;5072295;28;20073;-66
2024/01/20 00:32:18;;;;;;;7.97;2.50;;;;;;;0.19;83.59;101720.38;5080651;28;20412;-66
2024/01/20 00:34:43;;;;;;;12.80;3.33;;;;;;;0.24;83.35;101726.94;5080284;28;20036;-65
2024/01/20 00:37:09;;;;;;;9.93;2.43;;;;;;;0.26;82.95;101711.47;5080359;28;20404;-68
2024/01/20 00:39:34;;;;;;;12.27;3.65;;;;;;;0.24;83.29;101724.34;5081694;28;20547;-65
2024/01/20 00:42:00;;;;;;;11.80;3.30;;;;;;;0.25;82.91;101726.16;5081499;28;20146;-67
2024/01/20 00:44:25;;;;;;;8.20;2.77;;;;;;;0.24;83.17;101732.16;5081052;28;20606;-66
2024/01/20 00:46:51;;;;;;;11.47;3.40;;;;;;;0.26;82.72;101742.66;5080665;28;20120;-66
2024/01/20 00:49:16;;;;;;;10.68;3.60;;;;;;;0.28;82.63;101735.94;5080154;28;20797;-66
2024/01/20 00:51:41;;;;;;;9.80;2.77;;;;;;;0.32;82.81;101745.88;5079798;28;20568;-68
2024/01/20 00:54:07;;;;;;;14.00;3.20;;;;;;;0.35;82.72;101747.06;5079985;28;20119;-68
2024/01/20 00:56:33;;;;;;;8.63;2.53;;;;;;;0.34;82.42;101747.84;5079393;28;20488;-67
2024/01/20 00:58:58;;;;;;;10.67;2.70;;;;;;;0.35;82.48;101754.88;5080178;28;20098;-67
2024/01/20 01:01:24;;;;;;;12.83;2.73;;;;;;;0.37;81.89;101752.41;5079281;28;20117;-66
2024/01/20 01:03:49;;;;;;;11.15;3.55;;;;;;;0.32;81.86;101748.47;5082613;28;20147;-67
2024/01/20 01:06:14;;;;;;;15.10;4.23;;;;;;;0.30;82.11;101749.97;5082340;28;20120;-68
2024/01/20 01:08:40;;;;;;;10.23;2.60;;;;;;;0.30;82.30;101761.28;5082325;28;20021;-66
2024/01/20 01:11:05;;;;;;;10.37;2.90;;;;;;;0.34;82.39;101768.66;5082262;28;20040;-67
2024/01/20 01:13:35;;;;;;;10.93;3.22;;;;;;;0.31;82.03;101765.72;5081988;28;20033;-68
2024/01/20 01:16:00;;;;;;;11.77;3.57;;;;;;;0.30;82.11;101771.69;5081714;28;20853;-65
2024/01/20 01:18:26;;;;;;;15.73;3.42;;;;;;;0.31;82.12;101781.31;5081777;28;20040;-67
2024/01/20 01:20:51;;;;;;;9.43;2.87;;;;;;;0.29;82.40;101777.69;5081472;28;20111;-67
2024/01/20 01:23:17;;;;;;;12.47;3.57;;;;;;;0.27;82.06;101780.88;5082038;28;20034;-67
2024/01/20 01:25:42;;;;;;;12.70;4.23;;;;;;;0.32;81.91;101782.25;5079499;28;20040;-65
2024/01/20 01:28:07;;;;;;;9.47;2.33;;;;;;;0.28;81.86;101786.22;5080092;28;20174;-66
2024/01/20 01:30:33;;;;;;;11.10;3.70;;;;;;;0.29;81.63;101785.47;5077119;28;20314;-66
2024/01/20 01:32:58;;;;;;;10.30;3.70;;;;;;;0.26;81.88;101790.34;5078072;28;20107;-66
2024/01/20 01:35:23;;;;;;;10.97;3.07;;;;;;;0.24;82.01;101784.09;5070284;28;20041;-66
2024/01/20 01:37:49;;;;;;;7.43;2.27;;;;;;;0.22;81.77;101788.22;5066053;28;20075;-68
2024/01/20 01:40:14;;;;;;;11.23;3.15;;;;;;;0.17;82.34;101793.72;5065329;28;20036;-65
2024/01/20 01:42:40;;;;;;;13.07;3.30;;;;;;;0.20;82.06;101788.84;5065960;28;20104;-69
2024/01/20 01:45:05;;;;;;;13.57;3.90;;;;;;;0.24;82.28;101790.97;5065361;28;20483;-66
2024/01/20 01:47:31;;;;;;;8.60;3.33;;;;;;;0.25;82.14;101792.78;5065240;28;20056;-67
2024/01/20 01:49:56;;;;;;;9.35;3.47;;;;;;;0.26;81.44;101789.44;5065361;28;20062;-65
2024/01/20 01:52:23;;;;;;;9.37;3.30;;;;;;;0.22;81.99;101784.69;5065756;28;20052;-68
2024/01/20 01:54:48;;;;;;;13.70;3.92;;;;;;;0.21;82.27;101791.59;5065334;28;20044;-65
2024/01/20 01:57:15;;;;;;;11.37;3.97;;;;;;;0.20;82.04;101794.06;5065402;28;20036;-66
2024/01/20 01:59:41;;;;;;;8.68;3.00;;;;;;;0.19;81.92;101795.72;5064966;28;20040;-69
2024/01/20 02:02:06;;;;;;;11.88;3.35;;;;;;;0.17;82.09;101798.94;5067118;28;20040;-66
2024/01/20 02:04:32;;;;;;;11.20;4.07;;;;;;;0.20;82.77;101794.06;5066144;28;20020;-69
2024/01/20 02:06:58;;;;;;;12.87;3.23;;;;;;;0.23;82.22;101803.06;5064574;28;20487;-66
2024/01/20 02:09:23;;;;;;;14.40;4.43;;;;;;;0.21;82.26;101790.66;5066434;28;20036;-69
2024/01/20 02:11:49;;;;;;;15.37;4.00;;;;;;;0.22;82.66;101798.63;5065619;28;20036;-66
2024/01/20 02:14:14;;;;;;;15.07;3.87;;;;;;;0.26;82.25;101803.34;5064954;28;20188;-67
2024/01/20 02:16:40;;;;;;;9.40;3.60;;;;;;;0.26;82.24;101789.44;5062680;28;20524;-67
2024/01/20 02:19:05;;;;;;;10.17;3.30;;;;;;;0.29;82.32;101795.88;5065422;28;20040;-66
2024/01/20 02:21:32;;;;;;;16.13;4.53;;;;;;;0.32;82.51;101793.56;5065079;28;20051;-66
2024/01/20 02:23:59;;;;;;;13.30;3.75;;;;;;;0.35;82.13;101787.72;5065364;28;20033;-66
2024/01/20 02:26:27;;;;;;;8.15;2.55;;;;;;;0.40;82.72;101812.47;5065385;28;20097;-66
2024/01/20 02:28:53;;;;;;;10.25;3.88;;;;;;;0.51;82.41;101792.72;5065071;28;20054;-66
2024/01/20 02:31:18;;;;;;;13.97;3.80;;;;;;;0.51;82.31;101800.53;5065306;28;20119;-66
2024/01/20 02:33:43;;;;;;;14.30;4.93;;;;;;;0.48;81.97;101800.25;5065020;28;20839;-66
2024/01/20 02:36:09;;;;;;;9.97;3.00;;;;;;;0.44;82.21;101799.94;5063847;28;20123;-66
2024/01/20 02:38:34;;;;;;;9.63;3.70;;;;;;;0.44;82.38;101802.53;5064669;28;20111;-68
2024/01/20 02:40:59;;;;;;;11.07;3.63;;;;;;;0.44;82.75;101799.94;5064678;28;20123;-66
2024/01/20 02:43:25;;;;;;;13.43;3.97;;;;;;;0.47;82.22;101811.41;5064346;28;20166;-66
2024/01/20 02:45:50;;;;;;;9.13;3.93;;;;;;;0.51;82.34;101803.13;5063865;28;20041;-68
2024/01/20 02:48:15;;;;;;;10.33;2.67;;;;;;;0.53;82.29;101797.31;5063907;28;20044;-66
2024/01/20 02:50:41;;;;;;;11.23;3.73;;;;;;;0.55;82.49;101802.66;5063835;28;20062;-66
2024/01/20 02:53:06;;;;;;;14.35;4.00;;;;;;;0.58;82.37;101810.78;5065330;28;20036;-66
2024/01/20 02:55:32;;;;;;;10.43;4.13;;;;;;;0.57;82.18;101803.72;5064736;28;20086;-66
2024/01/20 02:57:58;;;;;;;13.37;3.80;;;;;;;0.57;82.25;101808.94;5064502;28;20036;-67
2024/01/20 03:00:23;;;;;;;12.48;3.90;;;;;;;0.58;82.48;101811.69;5064137;28;20412;-66
2024/01/20 03:02:49;;;;;;;8.33;2.67;;;;;;;0.57;82.92;101803.72;5064554;28;20974;-66
2024/01/20 03:05:14;;;;;;;11.70;3.67;;;;;;;0.58;82.39;101815.97;5059537;28;20060;-65
2024/01/20 03:07:39;;;;;;;12.90;4.22;;;;;;;0.59;82.76;101821.31;5063658;28;20036;-66
2024/01/20 03:10:05;;;;;;;10.20;3.27;;;;;;;0.64;82.54;101822.66;5062421;28;20119;-66
2024/01/20 03:12:30;;;;;;;11.83;3.70;;;;;;;0.68;81.99;101823.91;5059695;28;20070;-66
2024/01/20 03:14:56;;;;;;;13.50;4.23;;;;;;;0.67;82.36;101822.06;5062780;28;20382;-66
2024/01/20 03:17:21;;;;;;;12.20;3.53;;;;;;;0.69;82.27;101810.13;5063559;28;20032;-67
2024/01/20 03:19:47;;;;;;;10.73;4.20;;;;;;;0.69;82.40;101846.53;5061763;28;20115;-67
2024/01/20 03:22:12;;;;;;;9.73;3.57;;;;;;;0.71;82.26;101818.97;5063537;28;20570;-65
2024/01/20 03:24:37;;;;;;;12.70;4.73;;;;;;;0.72;82.07;101829.53;5058315;28;20060;-66
2024/01/20 03:27:03;;;;;;;11.53;3.83;;;;;;;0.74;82.25;101842.69;5063164;28;20763;-66
2024/01/20 03:29:28;;;;;;;11.57;4.30;;;;;;;0.77;82.13;101842.97;5063055;28;20040;-67
2024/01/20 03:31:53;;;;;;;16.63;4.17;;;;;;;0.77;82.03;101837.78;5063317;28;20086;-67
2024/01/20 03:34:20;;;;;;;13.67;4.50;;;;;;;0.79;81.97;101849.25;5058532;28;20235;-67
2024/01/20 03:36:46;;;;;;;12.80;4.00;;;;;;;0.81;82.03;101850.31;5063566;28;20048;-65
2024/01/20 03:39:11;;;;;;;11.60;3.30;;;;;;;0.82;82.19;101854.75;5063570;28;20036;-65
2024/01/20 03:41:36;;;;;;;9.80;4.03;;;;;;;0.82;81.78;101849.53;5063652;28;20040;-67
2024/01/20 03:44:02;;;;;;;13.40;4.60;;;;;;;0.84;82.20;101863.59;5061177;28;20112;-66
2024/01/20 03:46:27;;;;;;;9.93;3.35;;;;;;;0.87;81.82;101853.50;5062789;28;20032;-68
2024/01/20 03:48:53;;;;;;;10.13;3.80;;;;;;;0.91;82.17;101858.22;5062872;28;20123;-65
2024/01/20 03:51:18;;;;;;;11.57;3.83;;;;;;;0.92;82.00;101861.75;5063361;28;20086;-66
2024/01/20 03:53:43;;;;;;;16.50;4.50;;;;;;;0.96;82.02;101879.47;5063174;28;20345;-67
2024/01/20 03:56:09;;;;;;;10.90;3.67;;;;;;;1.01;81.76;101881.75;5061338;28;20044;-65
2024/01/20 03:58:36;;;;;;;9.77;3.63;;;;;;;1.01;82.17;101873.94;5062780;28;20374;-68
2024/01/20 04:01:02;;;;;;;15.43;4.47;;;;;;;1.01;82.12;101884.34;5062889;28;20117;-69
2024/01/20 04:03:27;;;;;;;11.97;4.77;;;;;;;1.06;81.89;101892.59;5062489;28;20052;-66
2024/01/20 04:05:52;;;;;;;9.90;3.53;;;;;;;1.04;82.26;101884.63;5062959;28;20111;-66
2024/01/20 04:08:18;;;;;;;10.57;4.03;;;;;;;1.08;81.71;101880.69;5063244;28;20028;-68
2024/01/20 04:10:43;;;;;;;11.73;4.83;;;;;;;1.07;81.87;101868.44;5062341;28;20032;-65
2024/01/20 04:13:08;;;;;;;13.97;4.30;;;;;;;1.07;81.96;101884.97;5062739;28;20081;-69
2024/01/20 04:15:34;;;;;;;13.40;3.50;;;;;;;1.11;81.77;101881.88;5062151;28;20289;-66
2024/01/20 04:17:59;;;;;;;12.27;4.47;;;;;;;1.11;81.94;101887.06;5062852;28;20039;-67
2024/01/20 04:20:24;;;;;;;16.47;4.40;;;;;;;1.07;81.37;101879.75;5063847;28;20185;-68
2024/01/20 04:25:03;;;;;;;13.52;3.65;;;;;;;1.06;82.02;101877.91;5080805;28;20775;-67
2024/01/20 04:27:28;;;;;;;12.63;4.38;;;;;;;1.01;81.38;101880.84;5080251;28;20036;-67
2024/01/20 04:29:54;;;;;;;11.37;4.30;;;;;;;0.96;81.86;101885.59;5080237;28;20500;-67
2024/01/20 04:32:19;;;;;;;12.27;4.27;;;;;;;0.97;82.16;101874.44;5080508;28;20093;-68
2024/01/20 04:34:45;;;;;;;7.90;3.30;;;;;;;0.97;81.86;101878.72;5079782;28;20934;-67
2024/01/20 04:37:10;;;;;;;12.60;4.80;;;;;;;0.93;82.07;101880.13;5080109;28;20127;-68
2024/01/20 04:39:35;;;;;;;8.20;3.40;;;;;;;0.89;82.21;101890.97;5079865;28;20488;-66
2024/01/20 04:42:01;;;;;;;14.27;4.97;;;;;;;0.87;82.29;101892.50;5080292;28;20131;-67
2024/01/20 04:44:26;;;;;;;14.07;4.27;;;;;;;0.81;81.98;101891.91;5080295;28;20630;-68
2024/01/20 04:46:51;;;;;;;11.80;4.53;;;;;;;0.73;82.75;101879.84;5079506;28;20119;-67
2024/01/20 04:49:17;;;;;;;9.33;3.97;;;;;;;0.71;83.02;101899.59;5079470;28;20481;-66
2024/01/20 04:51:42;;;;;;;15.95;4.30;;;;;;;0.72;82.85;101885.81;5079778;28;20123;-67
2024/01/20 04:54:07;;;;;;;10.10;3.60;;;;;;;0.70;82.62;101887.34;5080024;28;20542;-67
2024/01/20 04:56:33;;;;;;;12.83;4.93;;;;;;;0.64;83.20;101887.66;5079222;28;20126;-67
2024/01/20 04:58:58;;;;;;;18.27;4.73;;;;;;;0.66;82.49;101904.34;5087401;28;20536;-68
2024/01/20 05:01:23;;;;;;;12.33;4.17;;;;;;;0.61;82.83;101878.66;5081968;28;20048;-67
2024/01/20 05:03:49;;;;;;;7.38;2.58;;;;;;;0.61;83.35;101881.25;5079092;28;20666;-68
2024/01/20 05:06:14;;;;;;;12.07;4.57;;;;;;;0.59;83.49;101893.19;5080115;28;20052;-67
2024/01/20 05:08:40;;;;;;;12.30;4.67;;;;;;;0.61;83.56;101894.25;5079821;28;20663;-68
2024/01/20 05:11:06;;;;;;;13.73;4.80;;;;;;;0.62;83.18;101888.28;5079977;28;20048;-67
2024/01/20 05:13:32;;;;;;;14.88;5.32;;;;;;;0.58;83.07;101894.88;5079627;28;20036;-67
2024/01/20 05:15:57;;;;;;;10.57;4.07;;;;;;;0.58;83.48;101887.06;5079379;28;20500;-67
2024/01/20 05:18:22;;;;;;;14.53;5.60;;;;;;;0.57;83.94;101899.91;5079535;28;20040;-68
2024/01/20 05:20:48;;;;;;;15.67;4.87;;;;;;;0.58;83.44;101915.69;5081302;28;20373;-67
2024/01/20 05:23:13;;;;;;;17.63;4.80;;;;;;;0.61;83.82;101920.25;5084953;28;20485;-67
2024/01/20 05:25:39;;;;;;;12.00;4.40;;;;;;;0.68;83.97;101912.28;5079129;28;20028;-68
2024/01/20 05:28:04;;;;;;;16.20;4.73;;;;;;;0.79;83.79;101920.34;5079390;28;20139;-67
2024/01/20 05:30:30;;;;;;;10.93;3.95;;;;;;;0.89;83.65;101922.16;5078866;28;20533;-66
2024/01/20 05:35:18;;;;;;;20.27;4.93;;;;;;;1.03;83.49;101940.06;4997008;28;20364;-69
2024/01/20 05:37:44;;;;;;;13.80;4.57;;;;;;;1.10;83.29;101931.16;4994699;28;20034;-65
2024/01/20 05:40:10;;;;;;;13.73;4.97;;;;;;;1.10;83.07;101945.06;4974584;28;20351;-70
2024/01/20 05:42:35;;;;;;;14.65;5.32;;;;;;;1.12;83.22;101933.16;4968386;28;20491;-68
2024/01/20 05:45:01;;;;;;;16.67;5.40;;;;;;;1.14;82.91;101938.47;4963270;28;20410;-65
2024/01/20 05:47:26;;;;;;;10.10;3.93;;;;;;;1.12;82.92;101935.75;4961641;28;20043;-69
2024/01/20 05:49:52;;;;;;;11.37;4.10;;;;;;;1.14;83.37;101939.41;4969788;28;20046;-68
2024/01/20 05:52:17;;;;;;;11.70;3.95;;;;;;;1.15;83.33;101941.25;4967916;28;20077;-67
2024/01/20 05:54:42;;;;;;;12.03;4.40;;;;;;;1.17;83.32;101944.00;4967185;28;20046;-68
2024/01/20 05:57:08;;;;;;;13.77;5.47;;;;;;;1.18;83.44;101943.25;4964163;28;20138;-67
2024/01/20 05:59:34;;;;;;;15.60;4.27;;;;;;;1.19;83.64;101943.38;4968214;28;20039;-69
2024/01/20 06:02:00;;;;;;;13.77;4.50;;;;;;;1.18;83.44;101945.84;4960693;28;20454;-69
2024/01/20 06:04:25;;;;;;;11.40;4.53;;;;;;;1.17;83.14;101955.34;4958553;28;20043;-68
2024/01/20 06:06:51;;;;;;;12.10;4.73;;;;;;;1.18;83.57;101953.66;4958565;28;20150;-66
2024/01/20 06:09:16;;;;;;;12.40;5.20;;;;;;;1.14;83.37;101949.81;4958985;28;20039;-66
2024/01/20 06:11:42;;;;;;;13.57;4.75;;;;;;;1.09;83.61;101948.44;4958354;28;20578;-68
2024/01/20 06:14:07;;;;;;;12.10;4.90;;;;;;;1.03;84.09;101945.28;4966810;28;20050;-68
2024/01/20 06:16:38;;;;;;;11.13;4.60;;;;;;;0.98;83.92;101946.50;4958754;28;20062;-68
2024/01/20 06:19:05;;;;;;;13.70;5.45;;;;;;;0.96;83.62;101941.91;4970239;28;20080;-68
2024/01/20 06:21:30;;;;;;;15.07;4.55;;;;;;;0.86;84.19;101946.22;4981244;28;20093;-66
2024/01/20 06:23:56;;;;;;;14.10;5.33;;;;;;;0.84;84.54;101950.34;4985064;28;20461;-65
2024/01/20 06:26:21;;;;;;;19.00;4.80;;;;;;;0.80;84.53;101955.09;4975778;28;20153;-65
2024/01/20 06:28:47;;;;;;;11.20;4.63;;;;;;;0.76;84.63;101943.47;4958161;28;20073;-68
2024/01/20 06:31:25;;;;;;;12.80;4.80;;;;;;;0.70;84.89;101952.34;4971125;28;20070;-66
2024/01/20 06:33:52;;;;;;;12.93;5.47;;;;;;;0.69;84.82;101950.53;4969961;28;20080;-66
2024/01/20 06:36:18;;;;;;;14.55;4.35;;;;;;;0.67;84.75;101957.25;4957591;28;20308;-67
2024/01/20 06:38:44;;;;;;;13.23;5.22;;;;;;;0.69;85.17;101966.13;4991276;28;20085;-68
2024/01/20 06:41:09;;;;;;;12.10;4.90;;;;;;;0.69;85.50;101955.75;4961158;28;20082;-65
2024/01/20 06:43:35;;;;;;;13.77;5.57;;;;;;;0.62;85.26;101964.59;4967150;28;20291;-67
2024/01/20 06:46:00;;;;;;;12.57;4.37;;;;;;;0.62;85.58;101976.69;4966544;28;20039;-66
2024/01/20 06:48:26;;;;;;;11.80;4.70;;;;;;;0.63;85.62;101965.53;4955194;28;20046;-68
2024/01/20 06:50:51;;;;;;;10.85;4.45;;;;;;;0.70;85.69;101962.75;4963304;28;20601;-66
2024/01/20 06:53:17;;;;;;;12.47;4.37;;;;;;;0.76;85.76;101966.88;4960118;28;20054;-67
2024/01/20 06:55:43;;;;;;;7.30;3.00;;;;;;;0.88;85.85;101977.59;4952910;28;20047;-68
2024/01/20 06:58:08;;;;;;;13.95;4.30;;;;;;;0.96;85.25;101979.25;4957346;28;20494;-68
2024/01/20 07:00:33;;;;;;;12.13;4.90;;;;;;;0.98;85.41;101979.41;4959952;28;20034;-67
2024/01/20 07:02:59;;;;;;;11.90;4.60;;;;;;;1.07;85.46;101991.63;4952484;28;20039;-69
2024/01/20 07:05:25;;;;;;;13.97;5.47;;;;;;;1.09;84.92;101984.88;4951398;28;20039;-67
2024/01/20 07:07:50;;;;;;;11.43;4.05;;;;;;;1.13;85.12;101986.09;4957504;28;20122;-66
2024/01/20 07:10:15;;;;;;;10.50;4.33;;;;;;;1.16;84.94;101987.31;4954976;28;20055;-69
2024/01/20 07:12:41;;;;;;;11.55;4.85;;;;;;;1.22;84.63;101987.91;4954800;28;20564;-67
2024/01/20 07:15:07;;;;;;;11.93;4.43;;;;;;;1.26;84.67;101997.84;4954538;28;20038;-67
2024/01/20 07:17:32;;;;;;;10.63;4.33;;;;;;;1.29;84.93;101979.91;4945378;28;20039;-68
2024/01/20 07:19:58;;;;;;;12.48;4.28;;;;;;;1.34;84.87;101997.66;4959450;28;20050;-68
2024/01/20 07:22:23;;;;;;;15.63;5.50;;;;;;;1.37;84.67;101991.09;4951634;28;20055;-68
2024/01/20 07:24:49;;;;;;;14.30;5.53;;;;;;;1.40;84.74;101995.66;4942355;28;20042;-68
2024/01/20 07:27:14;;;;;;;14.83;4.40;;;;;;;1.43;84.65;101995.97;4957483;28;20476;-67
2024/01/20 07:29:40;;;;;;;13.67;5.30;;;;;;;1.42;84.42;101987.25;4944942;28;20096;-69
2024/01/20 07:32:05;;;;;;;16.50;5.50;;;;;;;1.45;84.34;101990.13;4953504;28;20122;-68
2024/01/20 07:34:31;;;;;;;12.32;4.57;;;;;;;1.47;84.57;101996.41;4961809;28;20047;-68
2024/01/20 07:36:56;;;;;;;12.90;4.47;;;;;;;1.49;84.18;101991.34;4955126;28;20065;-65
2024/01/20 07:39:21;;;;;;;15.40;6.10;;;;;;;1.72;85.93;102003.22;4961333;28;20050;-61
2024/01/20 07:41:47;;;;;;;15.95;5.70;;;;;;;1.93;85.37;101996.50;4961327;28;20049;-63
2024/01/20 07:44:13;;;;;;;11.90;5.30;;;;;;;1.83;84.61;102001.59;4947356;28;20499;-62
2024/01/20 07:46:38;;;;;;;11.60;5.27;;;;;;;1.74;84.18;102014.69;4950457;28;20050;-68
2024/01/20 07:49:03;;;;;;;16.63;5.20;;;;;;;1.70;83.88;102022.97;4947914;28;20080;-65
2024/01/20 07:51:29;;;;;;;13.03;5.17;;;;;;;1.65;83.85;102021.63;4954106;28;20437;-65
2024/01/20 07:53:54;;;;;;;13.63;3.80;;;;;;;1.59;83.63;102026.22;4951206;28;20035;-67
2024/01/20 07:56:20;;;;;;;8.83;3.20;;;;;;;1.56;83.65;102022.41;4942859;28;20054;-66
2024/01/20 07:58:45;;;;;;;16.27;5.60;;;;;;;1.54;83.86;102031.75;4958047;28;20178;-67
2024/01/20 08:01:10;;;;;;;12.82;4.57;;;;;;;1.52;83.86;102033.31;4951512;28;20043;-65
2024/01/20 08:03:36;;;;;;;13.17;4.57;;;;;;;1.48;84.02;102037.28;4951702;28;20034;-66
2024/01/20 08:06:02;;;;;;;12.47;4.90;;;;;;;1.49;83.88;102039.13;4943164;28;20039;-67
2024/01/20 08:08:27;;;;;;;15.35;5.65;;;;;;;1.52;83.96;102033.31;4943377;28;20039;-66
2024/01/20 08:10:52;;;;;;;13.33;4.77;;;;;;;1.54;83.68;102047.38;4946245;28;20437;-66
2024/01/20 08:13:20;;;;;;;7.53;2.70;;;;;;;1.55;83.65;102036.19;4947754;28;20070;-66
2024/01/20 08:15:45;;;;;;;8.77;4.03;;;;;;;1.59;83.38;102030.50;4942580;28;20039;-66
2024/01/20 08:18:10;;;;;;;16.63;5.43;;;;;;;1.64;83.11;102027.59;4943550;28;20134;-66
2024/01/20 08:20:36;;;;;;;12.77;4.77;;;;;;;1.72;82.91;102031.88;4944011;28;20050;-66
2024/01/20 08:23:01;;;;;;;12.93;4.77;;;;;;;1.82;82.61;102025.84;4989288;28;20314;-68
2024/01/20 08:25:26;;;;;;;13.50;4.90;;;;;;;1.92;82.56;102038.97;4943310;28;20486;-65
2024/01/20 08:27:52;;;;;;;11.90;4.63;;;;;;;1.99;82.30;102035.25;4954741;28;20030;-67
2024/01/20 08:30:17;;;;;;;10.80;4.97;;;;;;;2.07;82.07;102032.59;4948438;28;20126;-67
2024/01/20 08:32:42;;;;;;;11.47;4.87;;;;;;;2.17;81.83;102030.09;4951911;28;20117;-66
2024/01/20 08:35:10;;;;;;;11.60;4.57;;;;;;;2.26;81.65;102039.56;4944072;28;20317;-68
2024/01/20 08:37:35;;;;;;;11.85;4.13;;;;;;;2.34;80.95;102042.09;4960487;28;20046;-68
2024/01/20 08:40:00;;;;;;;15.37;4.83;;;;;;;2.43;80.91;102036.81;4944107;28;20126;-67
2024/01/20 08:42:26;;;;;;;16.00;5.10;;;;;;;2.51;81.01;102044.63;4942126;28;20043;-67
2024/01/20 08:44:53;;;;;;;12.27;4.03;;;;;;;2.56;80.52;102055.47;4943710;28;20043;-66
2024/01/20 08:47:20;;;;;;;10.93;4.32;;;;;;;2.59;80.31;102053.13;4943753;28;20050;-70
2024/01/20 08:49:51;;;;;;;18.33;4.70;;;;;;;2.59;80.29;102061.88;4943663;28;20051;-66
2024/01/20 08:52:17;;;;;;;11.88;4.50;;;;;;;2.58;79.79;102061.72;4944603;28;20047;-67
2024/01/20 08:54:42;;;;;;;14.87;4.13;;;;;;;2.61;80.33;102049.00;4952430;28;20038;-68
2024/01/20 08:57:08;;;;;;;13.82;4.50;;;;;;;2.73;79.89;102071.00;4957740;28;20554;-67
2024/01/20 08:59:34;;;;;;;11.10;4.70;;;;;;;2.79;79.59;102058.53;4950049;28;20040;-67
2024/01/20 09:01:59;;;;;;;15.48;4.40;;;;;;;2.91;79.30;102066.56;4958610;28;20069;-63
2024/01/20 09:04:24;;;;;;;11.30;4.57;;;;;;;2.98;79.46;102069.88;4947246;28;20035;-66
2024/01/20 09:06:50;;;;;;;12.53;4.40;;;;;;;3.07;79.13;102075.00;4951632;28;20114;-67
2024/01/20 09:09:16;;;;;;;11.50;4.28;;;;;;;3.13;78.16;102082.47;4943380;28;20042;-67
2024/01/20 09:11:42;;;;;;;12.65;4.00;;;;;;;3.03;77.75;102075.50;4944963;28;20047;-67
2024/01/20 09:14:07;;;;;;;15.07;4.37;;;;;;;3.01;78.47;102082.25;4951081;28;20256;-66
2024/01/20 09:16:33;;;;;;;14.57;4.07;;;;;;;2.98;78.74;102074.16;4944517;28;20114;-70
2024/01/20 09:18:58;;;;;;;15.25;4.07;;;;;;;2.97;78.39;102072.31;4953204;28;20027;-68
2024/01/20 09:21:24;;;;;;;13.10;4.60;;;;;;;2.94;78.55;102079.88;4953216;28;20114;-68
2024/01/20 09:23:51;;;;;;;13.47;3.77;;;;;;;2.93;78.64;102096.31;4953475;28;20035;-68
2024/01/20 09:26:17;;;;;;;11.82;4.25;;;;;;;2.97;78.67;102096.72;4943371;28;20134;-67
2024/01/20 09:28:42;;;;;;;12.70;4.03;;;;;;;3.03;78.26;102099.00;4945098;28;20154;-69
2024/01/20 09:31:07;;;;;;;11.57;4.97;;;;;;;3.06;78.26;102098.38;4950099;28;20042;-68
2024/01/20 09:33:34;;;;;;;12.85;3.75;;;;;;;3.04;77.85;102106.06;4984685;28;20035;-65
2024/01/20 09:35:59;;;;;;;10.43;3.88;;;;;;;3.02;77.90;102107.59;4943848;28;20046;-66
2024/01/20 09:38:28;;;;;;;10.83;4.80;;;;;;;2.99;77.91;102104.72;4954323;28;20106;-67
2024/01/20 09:40:55;;;;;;;8.90;3.70;;;;;;;2.97;77.73;102117.63;4941955;28;20144;-67
2024/01/20 09:43:21;;;;;;;9.75;3.50;;;;;;;2.96;77.47;102118.38;4951679;28;20038;-66
2024/01/20 09:45:46;;;;;;;17.60;4.30;;;;;;;2.96;77.91;102118.38;4955787;28;20523;-67
2024/01/20 09:48:11;;;;;;;13.07;4.67;;;;;;;2.95;77.50;102120.88;4963661;28;20042;-66
2024/01/20 09:50:37;;;;;;;7.47;2.57;;;;;;;3.00;77.54;102117.00;4955206;28;20050;-68
2024/01/20 09:53:16;;;;;;;19.25;4.53;;;;;;;3.08;77.20;102128.13;4943291;28;20476;-66
2024/01/20 09:55:44;;;;;;;10.82;4.03;;;;;;;3.22;76.74;102138.16;4942160;28;20093;-66
2024/01/20 09:58:12;;;;;;;13.17;4.43;;;;;;;3.24;76.51;102140.13;4945319;28;20156;-67
2024/01/20 10:00:38;;;;;;;19.92;4.80;;;;;;;3.24;76.56;102134.91;4952104;28;20042;-66
2024/01/20 10:03:07;;;;;;;12.05;3.92;;;;;;;3.34;76.23;102129.75;4946806;28;20066;-67
2024/01/20 10:05:33;;;;;;;10.38;3.85;;;;;;;3.42;75.47;102127.84;4952220;28;20050;-67
2024/01/20 10:07:58;;;;;;;11.32;4.28;;;;;;;3.38;75.24;102125.72;4942201;28;20130;-65
2024/01/20 10:10:24;;;;;;;16.77;5.37;;;;;;;3.48;75.01;102134.53;4941990;28;20127;-65
2024/01/20 10:12:51;;;;;;;16.97;4.40;;;;;;;3.61;74.68;102128.72;4950335;28;20061;-66
2024/01/20 10:15:27;;;;;;;11.50;3.92;;;;;;;3.59;74.34;102125.06;4950017;28;20047;-67
2024/01/20 10:17:54;;;;;;;10.82;4.00;;;;;;;3.60;73.40;102128.59;4958517;28;20062;-66
2024/01/20 10:20:24;;;;;;;10.43;4.13;;;;;;;3.57;72.99;102142.28;4942442;28;20100;-68
2024/01/20 10:22:50;;;;;;;11.80;4.38;;;;;;;3.62;73.10;102129.63;4952913;28;20070;-69
2024/01/20 10:25:19;;;;;;;12.25;4.90;;;;;;;3.65;72.87;102132.56;4952909;28;20063;-66
2024/01/20 10:27:47;;;;;;;9.07;3.28;;;;;;;3.70;73.18;102129.53;4952431;28;20039;-66
2024/01/20 10:30:14;;;;;;;11.17;4.23;;;;;;;3.79;72.62;102139.94;4952782;28;20039;-67
2024/01/20 10:32:41;;;;;;;13.35;4.55;;;;;;;3.74;72.34;102142.13;4952719;28;20510;-68
2024/01/20 10:35:08;;;;;;;9.57;3.38;;;;;;;3.78;71.88;102136.41;4952313;28;20047;-69
2024/01/20 10:37:36;;;;;;;10.82;3.85;;;;;;;3.65;71.82;102154.34;4945110;28;20047;-69
2024/01/20 10:40:03;;;;;;;13.10;4.93;;;;;;;3.65;71.69;102143.88;4945051;28;20045;-67
2024/01/20 10:42:32;;;;;;;16.83;5.07;;;;;;;3.60;71.96;102142.56;4945032;28;20089;-65
2024/01/20 10:45:06;;;;;;;14.30;5.10;;;;;;;3.68;71.57;102146.78;4937466;28;20039;-67
2024/01/20 10:47:36;;;;;;;12.13;4.47;;;;;;;3.63;71.42;102155.00;4945145;28;20051;-68
2024/01/20 10:50:06;;;;;;;16.08;5.07;;;;;;;3.64;71.75;102147.31;4945129;28;20117;-67
2024/01/20 10:52:35;;;;;;;10.45;3.92;;;;;;;3.67;71.60;102152.78;4952604;28;20050;-67
2024/01/20 10:55:02;;;;;;;11.47;4.50;;;;;;;3.71;71.60;102152.28;4944931;28;20642;-65
2024/01/20 10:57:28;;;;;;;12.02;4.63;;;;;;;3.87;71.55;102147.66;4945214;28;20039;-67
2024/01/20 10:59:58;;;;;;;13.67;4.37;;;;;;;4.07;71.18;102156.38;4955737;28;20411;-66
2024/01/20 11:02:25;;;;;;;14.50;4.65;;;;;;;4.08;70.58;102147.75;4948426;28;20035;-67
2024/01/20 11:04:50;;;;;;;13.85;5.13;;;;;;;4.18;70.14;102146.09;4952507;28;20054;-66
2024/01/20 11:07:23;;;;;;;11.13;3.73;;;;;;;4.25;70.01;102145.81;4945351;28;20100;-68
2024/01/20 11:09:59;;;;;;;23.48;5.57;;;;;;;4.24;69.59;102156.19;4955085;28;20495;-66
2024/01/20 11:12:29;;;;;;;16.48;4.90;;;;;;;4.03;69.57;102157.81;4956063;28;20046;-65
2024/01/20 11:14:56;;;;;;;12.10;5.65;;;;;;;4.01;69.86;102161.03;4952598;28;20086;-66
2024/01/20 11:17:22;;;;;;;15.00;4.32;;;;;;;3.94;69.58;102154.38;4945221;28;20073;-67
2024/01/20 11:19:48;;;;;;;18.30;4.40;;;;;;;3.98;69.80;102159.09;4945093;28;20671;-66
2024/01/20 11:22:33;;;;;;;11.40;4.65;;;;;;;3.98;69.81;102155.56;4945295;28;20058;-67
2024/01/20 11:25:04;;;;;;;10.57;4.93;;;;;;;4.13;69.59;102152.59;4945534;28;20601;-67
2024/01/20 11:27:30;;;;;;;14.77;5.10;;;;;;;4.16;69.61;102147.63;4944555;28;20035;-65